Time;durP1;ratioP1;P1;durP2;ratioP2;P2;SDS_P1;SDS_P2;PMS_P1;PMS_P2;Temp;Humidity;BMP_temperature;BMP_pressure;BME280_temperature;BME280_humidity;BME280_pressure;Samples;Min_cycle;Max_cycle;Signal;HPM_P1;HPM_P2
2021/04/29 00:01:07;;;;;;;;;;;;;;;;;;5034756;28;1103;-73
2021/04/29 00:03:35;;;;;;;;;;;;;;;;;;5045847;28;858;-64
2021/04/29 00:06:02;;;;;;;;;;;;;;;;;;5027702;28;908;-71
2021/04/29 00:08:28;;;;;;;;;;;;;;;;;;5025483;28;882;-72
2021/04/29 00:10:53;;;;;;;;;;;;;;;;;;5013570;28;2703;-73
2021/04/29 00:13:19;;;;;;;;;;;;;;;;;;5025657;28;891;-67
2021/04/29 00:15:47;;;;;;;;;;;;;;;;;;5025373;28;858;-72
2021/04/29 00:18:13;;;;;;;;;;;;;;;;;;5026251;28;894;-57
2021/04/29 00:20:38;;;;;;;;;;;;;;;;;;5026614;28;1957;-65
2021/04/29 00:23:04;;;;;;;;;;;;;;;;;;5025264;28;903;-64
2021/04/29 00:25:29;;;;;;;;;;;;;;;;;;5023399;28;864;-62
2021/04/29 00:27:54;;;;;;;;;;;;;;;;;;5024664;28;886;-56
2021/04/29 00:30:20;;;;;;;;;;;;;;;;;;5024771;28;870;-54
2021/04/29 00:32:45;;;;;;;;;;;;;;;;;;5025184;28;843;-55
2021/04/29 00:35:11;;;;;;;;;;;;;;;;;;5021491;28;2512;-58
2021/04/29 00:37:36;;;;;;;;;;;;;;;;;;5020386;28;827;-60
2021/04/29 00:40:03;;;;;;;;;;;;;;;;;;5029062;28;1889;-67
2021/04/29 00:42:28;;;;;;;;;;;;;;;;;;5028883;28;894;-55
2021/04/29 00:44:54;;;;;;;;;;;;;;;;;;5029132;28;843;-60
2021/04/29 00:47:19;;;;;;;;;;;;;;;;;;5027412;28;975;-59
2021/04/29 00:49:45;;;;;;;;;;;;;;;;;;5028760;28;886;-54
2021/04/29 00:52:10;;;;;;;;;;;;;;;;;;5029392;28;898;-62
2021/04/29 00:54:36;;;;;;;;;;;;;;;;;;5028509;28;875;-60
2021/04/29 00:57:01;;;;;;;;;;;;;;;;;;5028889;28;914;-68
2021/04/29 00:59:26;;;;;;;;;;;;;;;;;;5028084;28;1921;-57
2021/04/29 01:01:58;;;;;;;;;;;;;;;;;;5043638;28;1103;-57
2021/04/29 01:04:29;;;;;;;;;;;;;;;;;;5047710;28;1288;-63
2021/04/29 01:07:08;;;;;;;;;;;;;;;;;;5047943;28;861;-61
2021/04/29 01:09:37;;;;;;;;;;;;;;;;;;5048532;28;890;-61
2021/04/29 01:12:11;;;;;;;;;;;;;;;;;;5045515;28;1248;-58
2021/04/29 01:14:38;;;;;;;;;;;;;;;;;;5048358;28;886;-56
2021/04/29 01:17:04;;;;;;;;;;;;;;;;;;5048403;28;819;-59
2021/04/29 01:20:08;;;;;;;;;;;;;;;;;;5047815;28;1936;-56
2021/04/29 01:22:47;;;;;;;;;;;;;;;;;;5005087;28;1310;-62
2021/04/29 01:25:15;;;;;;;;;;;;;;;;;;5005867;28;953;-58
2021/04/29 01:27:41;;;;;;;;;;;;;;;;;;5029995;28;1012;-64
2021/04/29 01:30:09;;;;;;;;;;;;;;;;;;5047587;28;784;-59
2021/04/29 01:32:35;;;;;;;;;;;;;;;;;;5046057;28;1474;-62
2021/04/29 01:35:01;;;;;;;;;;;;;;;;;;5047561;28;862;-70
2021/04/29 01:37:27;;;;;;;;;;;;;;;;;;5047417;28;870;-66
2021/04/29 01:39:52;;;;;;;;;;;;;;;;;;5047674;28;1947;-59
2021/04/29 01:42:17;;;;;;;;;;;;;;;;;;5047547;28;871;-57
2021/04/29 01:44:43;;;;;;;;;;;;;;;;;;5048671;28;871;-56
2021/04/29 01:47:09;;;;;;;;;;;;;;;;;;5047330;28;588;-59
2021/04/29 01:49:34;;;;;;;;;;;;;;;;;;5046192;28;804;-64
2021/04/29 01:52:00;;;;;;;;;;;;;;;;;;5047528;28;822;-57
2021/04/29 01:54:26;;;;;;;;;;;;;;;;;;5046983;28;917;-59
2021/04/29 01:56:51;;;;;;;;;;;;;;;;;;5046856;28;839;-61
2021/04/29 01:59:18;;;;;;;;;;;;;;;;;;5046634;28;1902;-57
2021/04/29 02:01:44;;;;;;;;;;;;;;;;;;5033265;28;1169;-64
2021/04/29 02:04:10;;;;;;;;;;;;;;;;;;5025827;28;820;-62
2021/04/29 02:06:36;;;;;;;;;;;;;;;;;;5027063;28;802;-60
2021/04/29 02:09:02;;;;;;;;;;;;;;;;;;5027463;28;808;-56
2021/04/29 02:11:31;;;;;;;;;;;;;;;;;;5025865;28;991;-57
2021/04/29 02:13:58;;;;;;;;;;;;;;;;;;5026837;28;870;-59
2021/04/29 02:16:35;;;;;;;;;;;;;;;;;;5027325;28;854;-56
2021/04/29 02:19:01;;;;;;;;;;;;;;;;;;5026597;28;1875;-56
2021/04/29 02:21:27;;;;;;;;;;;;;;;;;;5026830;28;795;-61
2021/04/29 02:23:53;;;;;;;;;;;;;;;;;;5027208;28;855;-63
2021/04/29 02:26:19;;;;;;;;;;;;;;;;;;5026958;28;815;-56
2021/04/29 02:28:44;;;;;;;;;;;;;;;;;;5026549;28;851;-59
2021/04/29 02:31:10;;;;;;;;;;;;;;;;;;5027306;28;803;-68
2021/04/29 02:33:36;;;;;;;;;;;;;;;;;;5026833;28;873;-61
2021/04/29 02:36:03;;;;;;;;;;;;;;;;;;5026183;28;977;-67
2021/04/29 02:38:28;;;;;;;;;;;;;;;;;;5025887;28;827;-63
2021/04/29 02:40:56;;;;;;;;;;;;;;;;;;5026195;28;874;-59
2021/04/29 02:43:22;;;;;;;;;;;;;;;;;;5026165;28;874;-66
2021/04/29 02:45:47;;;;;;;;;;;;;;;;;;5027418;28;819;-60
2021/04/29 02:48:14;;;;;;;;;;;;;;;;;;5027656;28;807;-60
2021/04/29 02:50:43;;;;;;;;;;;;;;;;;;5026849;28;1175;-65
2021/04/29 02:53:11;;;;;;;;;;;;;;;;;;5026597;28;874;-62
2021/04/29 02:55:36;;;;;;;;;;;;;;;;;;5026497;28;914;-59
2021/04/29 02:58:05;;;;;;;;;;;;;;;;;;5025966;28;945;-69
2021/04/29 03:00:31;;;;;;;;;;;;;;;;;;5029846;28;1967;-68
2021/04/29 03:02:56;;;;;;;;;;;;;;;;;;5046169;28;887;-67
2021/04/29 03:05:22;;;;;;;;;;;;;;;;;;5046378;28;846;-73
2021/04/29 03:07:47;;;;;;;;;;;;;;;;;;5045510;28;846;-73
2021/04/29 03:10:13;;;;;;;;;;;;;;;;;;5047317;28;898;-74
2021/04/29 03:12:38;;;;;;;;;;;;;;;;;;5046250;28;882;-68
2021/04/29 03:15:05;;;;;;;;;;;;;;;;;;5042090;28;1051;-58
2021/04/29 03:17:30;;;;;;;;;;;;;;;;;;5045359;28;830;-55
2021/04/29 03:19:55;;;;;;;;;;;;;;;;;;5045697;28;1889;-58
2021/04/29 03:22:21;;;;;;;;;;;;;;;;;;5045070;28;910;-55
2021/04/29 03:24:48;;;;;;;;;;;;;;;;;;5045480;28;819;-59
2021/04/29 03:27:15;;;;;;;;;;;;;;;;;;5046463;28;882;-55
2021/04/29 03:29:40;;;;;;;;;;;;;;;;;;5046828;28;905;-57
2021/04/29 03:32:05;;;;;;;;;;;;;;;;;;5036267;28;959;-61
2021/04/29 03:34:31;;;;;;;;;;;;;;;;;;5026300;28;883;-57
2021/04/29 03:36:56;;;;;;;;;;;;;;;;;;5026131;28;843;-59
2021/04/29 03:39:21;;;;;;;;;;;;;;;;;;5025586;28;1990;-59
2021/04/29 03:41:47;;;;;;;;;;;;;;;;;;5025820;28;839;-57
2021/04/29 03:44:12;;;;;;;;;;;;;;;;;;5026562;28;819;-55
2021/04/29 03:46:38;;;;;;;;;;;;;;;;;;5025915;28;1262;-58
2021/04/29 03:49:03;;;;;;;;;;;;;;;;;;5025139;28;855;-55
2021/04/29 03:51:28;;;;;;;;;;;;;;;;;;5024736;28;902;-65
2021/04/29 03:53:54;;;;;;;;;;;;;;;;;;5024511;28;899;-63
2021/04/29 03:56:19;;;;;;;;;;;;;;;;;;5026050;28;839;-56
2021/04/29 03:58:45;;;;;;;;;;;;;;;;;;5026352;28;1922;-59
2021/04/29 04:01:10;;;;;;;;;;;;;;;;;;5036811;28;1161;-57
2021/04/29 04:03:35;;;;;;;;;;;;;;;;;;5032476;28;1084;-60
2021/04/29 04:06:01;;;;;;;;;;;;;;;;;;5025238;28;885;-62
2021/04/29 04:08:26;;;;;;;;;;;;;;;;;;5025862;28;903;-57
2021/04/29 04:10:51;;;;;;;;;;;;;;;;;;5025509;28;839;-63
2021/04/29 04:13:18;;;;;;;;;;;;;;;;;;5026894;28;1463;-60
2021/04/29 04:15:43;;;;;;;;;;;;;;;;;;5009365;28;954;-55
2021/04/29 04:18:09;;;;;;;;;;;;;;;;;;5020270;28;961;-57
2021/04/29 04:20:34;;;;;;;;;;;;;;;;;;5028929;28;1914;-61
2021/04/29 04:22:59;;;;;;;;;;;;;;;;;;5028889;28;799;-62
2021/04/29 04:25:24;;;;;;;;;;;;;;;;;;5028956;28;899;-58
2021/04/29 04:27:50;;;;;;;;;;;;;;;;;;5029282;28;823;-55
2021/04/29 04:30:15;;;;;;;;;;;;;;;;;;5029203;28;875;-57
2021/04/29 04:32:42;;;;;;;;;;;;;;;;;;5030178;28;819;-55
2021/04/29 04:35:08;;;;;;;;;;;;;;;;;;5028997;28;835;-62
2021/04/29 04:37:33;;;;;;;;;;;;;;;;;;5029411;28;792;-56
2021/04/29 04:39:58;;;;;;;;;;;;;;;;;;5028548;28;1959;-57
2021/04/29 04:42:24;;;;;;;;;;;;;;;;;;5028540;28;899;-57
2021/04/29 04:44:49;;;;;;;;;;;;;;;;;;5028591;28;858;-60
2021/04/29 04:47:15;;;;;;;;;;;;;;;;;;5027959;28;847;-56
2021/04/29 04:49:40;;;;;;;;;;;;;;;;;;5028830;28;858;-58
2021/04/29 04:52:06;;;;;;;;;;;;;;;;;;5028242;28;914;-60
2021/04/29 04:54:33;;;;;;;;;;;;;;;;;;5028629;28;890;-54
2021/04/29 04:56:59;;;;;;;;;;;;;;;;;;5028676;28;898;-63
2021/04/29 04:59:25;;;;;;;;;;;;;;;;;;5028338;28;1902;-60
2021/04/29 05:01:50;;;;;;;;;;;;;;;;;;5043659;28;1113;-67
2021/04/29 05:04:16;;;;;;;;;;;;;;;;;;5047642;28;806;-60
2021/04/29 05:06:41;;;;;;;;;;;;;;;;;;5048880;28;822;-64
2021/04/29 05:09:06;;;;;;;;;;;;;;;;;;5048628;28;819;-64
2021/04/29 05:11:32;;;;;;;;;;;;;;;;;;5048235;28;1031;-61
2021/04/29 05:13:58;;;;;;;;;;;;;;;;;;5047732;28;823;-57
2021/04/29 05:16:23;;;;;;;;;;;;;;;;;;5047825;28;851;-70
2021/04/29 05:18:48;;;;;;;;;;;;;;;;;;5046885;28;1945;-64
2021/04/29 05:21:14;;;;;;;;;;;;;;;;;;5045805;28;1288;-60
2021/04/29 05:23:39;;;;;;;;;;;;;;;;;;5047619;28;890;-59
2021/04/29 05:26:05;;;;;;;;;;;;;;;;;;5047563;28;870;-66
2021/04/29 05:28:30;;;;;;;;;;;;;;;;;;5047379;28;819;-65
2021/04/29 05:30:55;;;;;;;;;;;;;;;;;;5047991;28;858;-68
2021/04/29 05:33:21;;;;;;;;;;;;;;;;;;5047700;28;838;-58
2021/04/29 05:35:46;;;;;;;;;;;;;;;;;;5047811;28;903;-68
2021/04/29 05:38:11;;;;;;;;;;;;;;;;;;5048429;28;831;-62
2021/04/29 05:40:37;;;;;;;;;;;;;;;;;;5047050;28;1894;-65
2021/04/29 05:43:02;;;;;;;;;;;;;;;;;;5047349;28;823;-60
2021/04/29 05:45:28;;;;;;;;;;;;;;;;;;5047408;28;962;-60
2021/04/29 05:47:53;;;;;;;;;;;;;;;;;;5047301;28;804;-74
2021/04/29 05:50:18;;;;;;;;;;;;;;;;;;5047597;28;803;-65
2021/04/29 05:52:44;;;;;;;;;;;;;;;;;;5048231;28;842;-71
2021/04/29 05:55:10;;;;;;;;;;;;;;;;;;5047653;28;823;-70
2021/04/29 05:57:35;;;;;;;;;;;;;;;;;;5047182;28;870;-70
2021/04/29 06:00:01;;;;;;;;;;;;;;;;;;5046609;28;1974;-74
2021/04/29 06:02:26;;;;;;;;;;;;;;;;;;5027262;28;816;-69
2021/04/29 06:04:51;;;;;;;;;;;;;;;;;;5027636;28;823;-72
2021/04/29 06:07:18;;;;;;;;;;;;;;;;;;5027346;28;906;-57
2021/04/29 06:09:43;;;;;;;;;;;;;;;;;;5027538;28;879;-61
2021/04/29 06:12:09;;;;;;;;;;;;;;;;;;5026866;28;898;-54
2021/04/29 06:14:34;;;;;;;;;;;;;;;;;;5026036;28;935;-57
2021/04/29 06:17:00;;;;;;;;;;;;;;;;;;5026855;28;815;-55
2021/04/29 06:19:25;;;;;;;;;;;;;;;;;;5025330;28;1968;-72
2021/04/29 06:21:52;;;;;;;;;;;;;;;;;;5026944;28;942;-58
2021/04/29 06:24:17;;;;;;;;;;;;;;;;;;5026737;28;863;-56
2021/04/29 06:26:43;;;;;;;;;;;;;;;;;;5026821;28;1152;-56
2021/04/29 06:29:08;;;;;;;;;;;;;;;;;;5026636;28;807;-58
2021/04/29 06:31:36;;;;;;;;;;;;;;;;;;5025893;28;815;-57
2021/04/29 06:34:02;;;;;;;;;;;;;;;;;;5026984;28;811;-71
2021/04/29 06:36:28;;;;;;;;;;;;;;;;;;5026152;28;858;-56
2021/04/29 06:38:53;;;;;;;;;;;;;;;;;;5026188;28;1957;-59
2021/04/29 06:41:18;;;;;;;;;;;;;;;;;;5026326;28;921;-57
2021/04/29 06:43:44;;;;;;;;;;;;;;;;;;5027422;28;831;-67
2021/04/29 06:46:11;;;;;;;;;;;;;;;;;;5025901;28;898;-61
2021/04/29 06:48:36;;;;;;;;;;;;;;;;;;5018511;28;1717;-60
2021/04/29 06:51:01;;;;;;;;;;;;;;;;;;5026242;28;882;-62
2021/04/29 06:53:27;;;;;;;;;;;;;;;;;;5024641;28;1719;-58
2021/04/29 06:55:52;;;;;;;;;;;;;;;;;;5025903;28;1876;-55
2021/04/29 06:58:17;;;;;;;;;;;;;;;;;;5026189;28;1810;-55
2021/04/29 07:00:43;;;;;;;;;;;;;;;;;;5024433;28;1991;-59
2021/04/29 07:03:08;;;;;;;;;;;;;;;;;;5022312;28;1627;-62
2021/04/29 07:05:34;;;;;;;;;;;;;;;;;;5025661;28;1183;-58
2021/04/29 07:07:59;;;;;;;;;;;;;;;;;;5019637;28;1557;-65
2021/04/29 07:10:25;;;;;;;;;;;;;;;;;;5022513;28;1414;-64
2021/04/29 07:12:50;;;;;;;;;;;;;;;;;;5025229;28;1132;-66
2021/04/29 07:15:16;;;;;;;;;;;;;;;;;;5027882;28;1145;-62
2021/04/29 07:17:42;;;;;;;;;;;;;;;;;;5026196;28;1166;-64
2021/04/29 07:20:08;;;;;;;;;;;;;;;;;;5025484;28;1898;-54
2021/04/29 07:22:34;;;;;;;;;;;;;;;;;;5026052;28;1301;-60
2021/04/29 07:24:59;;;;;;;;;;;;;;;;;;5034745;28;1160;-67
2021/04/29 07:27:24;;;;;;;;;;;;;;;;;;5039121;28;1091;-59
2021/04/29 07:29:50;;;;;;;;;;;;;;;;;;5026860;28;1218;-56
2021/04/29 07:32:15;;;;;;;;;;;;;;;;;;5026381;28;819;-56
2021/04/29 07:34:41;;;;;;;;;;;;;;;;;;5027297;28;1190;-66
2021/04/29 07:37:06;;;;;;;;;;;;;;;;;;5024667;28;1025;-61
2021/04/29 07:39:32;;;;;;;;;;;;;;;;;;5026930;28;1987;-56
2021/04/29 07:41:57;;;;;;;;;;;;;;;;;;5025741;28;1226;-61
2021/04/29 07:44:22;;;;;;;;;;;;;;;;;;5026642;28;1167;-62
2021/04/29 07:46:48;;;;;;;;;;;;;;;;;;5026607;28;1271;-61
2021/04/29 07:49:13;;;;;;;;;;;;;;;;;;5029922;28;1278;-57
2021/04/29 07:51:39;;;;;;;;;;;;;;;;;;5028961;28;1240;-72
2021/04/29 07:54:05;;;;;;;;;;;;;;;;;;5029040;28;1264;-55
2021/04/29 07:56:31;;;;;;;;;;;;;;;;;;5029170;28;1081;-63
2021/04/29 07:58:56;;;;;;;;;;;;;;;;;;5028316;28;1902;-60
2021/04/29 08:01:22;;;;;;;;;;;;;;;;;;5040798;28;1076;-57
2021/04/29 08:03:47;;;;;;;;;;;;;;;;;;5049751;28;890;-60
2021/04/29 08:06:12;;;;;;;;;;;;;;;;;;5050527;28;827;-60
2021/04/29 08:08:38;;;;;;;;;;;;;;;;;;5049741;28;854;-58
2021/04/29 08:11:03;;;;;;;;;;;;;;;;;;5049931;28;815;-62
2021/04/29 08:13:29;;;;;;;;;;;;;;;;;;5049489;28;910;-59
2021/04/29 08:15:54;;;;;;;;;;;;;;;;;;5049353;28;767;-61
2021/04/29 08:18:20;;;;;;;;;;;;;;;;;;5036606;28;939;-59
2021/04/29 08:20:46;;;;;;;;;;;;;;;;;;5026645;28;1886;-55
2021/04/29 08:23:11;;;;;;;;;;;;;;;;;;5026687;28;1697;-58
2021/04/29 08:25:37;;;;;;;;;;;;;;;;;;5027416;28;1599;-57
2021/04/29 08:28:02;;;;;;;;;;;;;;;;;;5029139;28;1267;-62
2021/04/29 08:30:28;;;;;;;;;;;;;;;;;;5028975;28;1473;-59
2021/04/29 08:32:55;;;;;;;;;;;;;;;;;;5028722;28;855;-64
2021/04/29 08:35:20;;;;;;;;;;;;;;;;;;5028465;28;803;-64
2021/04/29 08:37:46;;;;;;;;;;;;;;;;;;5027291;28;823;-62
2021/04/29 08:40:11;;;;;;;;;;;;;;;;;;5028943;28;1914;-67
2021/04/29 08:42:37;;;;;;;;;;;;;;;;;;5027671;28;847;-62
2021/04/29 08:45:04;;;;;;;;;;;;;;;;;;5027401;28;1160;-60
2021/04/29 08:47:29;;;;;;;;;;;;;;;;;;5027663;28;1238;-60
2021/04/29 08:49:55;;;;;;;;;;;;;;;;;;5026156;28;854;-67
2021/04/29 08:52:20;;;;;;;;;;;;;;;;;;5026216;28;890;-66
2021/04/29 08:54:47;;;;;;;;;;;;;;;;;;5027211;28;839;-58
2021/04/29 08:57:12;;;;;;;;;;;;;;;;;;5027811;28;1707;-65
2021/04/29 08:59:38;;;;;;;;;;;;;;;;;;5026439;28;1898;-59
2021/04/29 09:02:04;;;;;;;;;;;;;;;;;;5044278;28;1248;-60
2021/04/29 09:04:37;;;;;;;;;;;;;;;;;;5047424;28;787;-64
2021/04/29 09:07:13;;;;;;;;;;;;;;;;;;5044068;28;1177;-64
2021/04/29 09:09:43;;;;;;;;;;;;;;;;;;5047578;28;834;-63
2021/04/29 09:12:09;;;;;;;;;;;;;;;;;;5047499;28;831;-63
2021/04/29 09:14:36;;;;;;;;;;;;;;;;;;5047765;28;1045;-60
2021/04/29 09:17:02;;;;;;;;;;;;;;;;;;5047348;28;795;-60
2021/04/29 09:19:29;;;;;;;;;;;;;;;;;;5046765;28;1959;-64
2021/04/29 09:21:57;;;;;;;;;;;;;;;;;;5046875;28;1225;-66
2021/04/29 09:24:38;;;;;;;;;;;;;;;;;;5046344;28;851;-58
2021/04/29 09:27:17;;;;;;;;;;;;;;;;;;5046713;28;835;-63
2021/04/29 09:29:56;;;;;;;;;;;;;;;;;;5043206;28;1552;-64
2021/04/29 09:32:29;;;;;;;;;;;;;;;;;;5026882;28;816;-66
2021/04/29 09:34:54;;;;;;;;;;;;;;;;;;5027135;28;910;-63
2021/04/29 09:37:46;;;;;;;;;;;;;;;;;;5027057;28;859;-67
2021/04/29 09:40:17;;;;;;;;;;;;;;;;;;4999186;28;763679;-67
2021/04/29 09:42:45;;;;;;;;;;;;;;;;;;5028659;28;871;-67
2021/04/29 09:45:40;;;;;;;;;;;;;;;;;;5028912;28;866;-69
2021/04/29 09:48:08;;;;;;;;;;;;;;;;;;5018792;28;1474;-57
2021/04/29 09:50:41;;;;;;;;;;;;;;;;;;5027601;28;815;-57
2021/04/29 09:53:07;;;;;;;;;;;;;;;;;;5027718;28;795;-59
2021/04/29 09:55:34;;;;;;;;;;;;;;;;;;5028058;28;820;-55
2021/04/29 09:58:00;;;;;;;;;;;;;;;;;;5027645;28;819;-61
2021/04/29 10:00:26;;;;;;;;;;;;;;;;;;5031190;28;1914;-56
2021/04/29 10:02:51;;;;;;;;;;;;;;;;;;5047382;28;890;-57
2021/04/29 10:05:17;;;;;;;;;;;;;;;;;;5032126;28;1392;-58
2021/04/29 10:07:42;;;;;;;;;;;;;;;;;;5024191;28;1258;-57
2021/04/29 10:10:08;;;;;;;;;;;;;;;;;;5022697;28;1092;-55
2021/04/29 10:12:33;;;;;;;;;;;;;;;;;;5022690;28;1148;-62
2021/04/29 10:14:58;;;;;;;;;;;;;;;;;;5013798;28;1595;-60
2021/04/29 10:17:25;;;;;;;;;;;;;;;;;;5009424;28;863;-54
2021/04/29 10:19:53;;;;;;;;;;;;;;;;;;5006505;28;1985;-55
2021/04/29 10:22:19;;;;;;;;;;;;;;;;;;5007105;28;854;-64
2021/04/29 10:24:45;;;;;;;;;;;;;;;;;;5007537;28;886;-59
2021/04/29 10:27:12;;;;;;;;;;;;;;;;;;5008012;28;835;-56
2021/04/29 10:29:38;;;;;;;;;;;;;;;;;;5010717;28;1637;-59
2021/04/29 10:32:08;;;;;;;;;;;;;;;;;;5026849;28;867;-56
2021/04/29 10:34:43;;;;;;;;;;;;;;;;;;5027131;28;863;-65
2021/04/29 10:37:17;;;;;;;;;;;;;;;;;;5026967;28;866;-59
2021/04/29 10:40:03;;;;;;;;;;;;;;;;;;5027295;28;1968;-60
2021/04/29 10:42:29;;;;;;;;;;;;;;;;;;5026861;28;843;-58
2021/04/29 10:44:59;;;;;;;;;;;;;;;;;;5026914;28;933;-57
2021/04/29 10:47:29;;;;;;;;;;;;;;;;;;5026646;28;893;-62
2021/04/29 10:50:05;;;;;;;;;;;;;;;;;;5022386;28;1275;-58
2021/04/29 10:52:31;;;;;;;;;;;;;;;;;;5025298;28;1076;-58
2021/04/29 10:54:56;;;;;;;;;;;;;;;;;;5026032;28;878;-58
2021/04/29 10:57:22;;;;;;;;;;;;;;;;;;5026228;28;796;-57
2021/04/29 10:59:49;;;;;;;;;;;;;;;;;;5028230;28;1922;-63
2021/04/29 11:02:24;;;;;;;;;;;;;;;;;;5030996;28;1118;-55
2021/04/29 11:04:52;;;;;;;;;;;;;;;;;;5025627;28;815;-65
2021/04/29 11:07:18;;;;;;;;;;;;;;;;;;5026090;28;928;-60
2021/04/29 11:09:44;;;;;;;;;;;;;;;;;;5026646;28;1077;-66
2021/04/29 11:12:10;;;;;;;;;;;;;;;;;;5023264;28;1137;-67
2021/04/29 11:14:39;;;;;;;;;;;;;;;;;;5025446;28;859;-62
2021/04/29 11:17:05;;;;;;;;;;;;;;;;;;5026142;28;871;-59
2021/04/29 11:19:46;;;;;;;;;;;;;;;;;;5025193;28;1898;-65
2021/04/29 11:22:30;;;;;;;;;;;;;;;;;;5026802;28;1210;-65
2021/04/29 11:24:55;;;;;;;;;;;;;;;;;;5023506;28;1269;-61
2021/04/29 11:27:22;;;;;;;;;;;;;;;;;;5024722;28;1326;-65
2021/04/29 11:29:48;;;;;;;;;;;;;;;;;;5025083;28;1497;-68
2021/04/29 11:32:13;;;;;;;;;;;;;;;;;;5025753;28;1172;-68
2021/04/29 11:34:41;;;;;;;;;;;;;;;;;;5025397;28;1274;-69
2021/04/29 11:37:07;;;;;;;;;;;;;;;;;;5025954;28;878;-69
2021/04/29 11:39:32;;;;;;;;;;;;;;;;;;5025129;28;1902;-60
2021/04/29 11:41:57;;;;;;;;;;;;;;;;;;5025218;28;843;-68
2021/04/29 11:44:23;;;;;;;;;;;;;;;;;;5024836;28;871;-68
2021/04/29 11:46:48;;;;;;;;;;;;;;;;;;5025054;28;878;-64
2021/04/29 11:49:14;;;;;;;;;;;;;;;;;;5023366;28;2574;-72
2021/04/29 11:51:44;;;;;;;;;;;;;;;;;;5017001;28;894;-63
2021/04/29 11:54:10;;;;;;;;;;;;;;;;;;5025452;28;925;-62
2021/04/29 11:56:59;;;;;;;;;;;;;;;;;;5024169;28;1255;-56
2021/04/29 11:59:28;;;;;;;;;;;;;;;;;;5024435;28;1918;-60
2021/04/29 12:01:54;;;;;;;;;;;;;;;;;;5040797;28;1087;-59
2021/04/29 12:04:22;;;;;;;;;;;;;;;;;;5042281;28;1162;-60
2021/04/29 12:06:47;;;;;;;;;;;;;;;;;;5016976;28;2502;-56
2021/04/29 12:09:13;;;;;;;;;;;;;;;;;;5022450;28;847;-65
2021/04/29 12:11:38;;;;;;;;;;;;;;;;;;5025187;28;807;-59
2021/04/29 12:14:03;;;;;;;;;;;;;;;;;;5025057;28;889;-64
2021/04/29 12:16:29;;;;;;;;;;;;;;;;;;5024023;28;1176;-55
2021/04/29 12:18:58;;;;;;;;;;;;;;;;;;5030057;28;1898;-64
2021/04/29 12:21:25;;;;;;;;;;;;;;;;;;5033510;28;768;-65
2021/04/29 12:23:57;;;;;;;;;;;;;;;;;;5034946;28;955;-60
2021/04/29 12:26:33;;;;;;;;;;;;;;;;;;5035260;28;812;-61
2021/04/29 12:28:59;;;;;;;;;;;;;;;;;;5033756;28;882;-64
2021/04/29 12:31:25;;;;;;;;;;;;;;;;;;5034770;28;1532;-60
2021/04/29 12:33:54;;;;;;;;;;;;;;;;;;5036629;28;882;-65
2021/04/29 12:36:20;;;;;;;;;;;;;;;;;;5037387;28;886;-63
2021/04/29 12:38:46;;;;;;;;;;;;;;;;;;5038225;28;970;-58
2021/04/29 12:41:11;;;;;;;;;;;;;;;;;;5009314;28;1977;-60
2021/04/29 12:43:37;;;;;;;;;;;;;;;;;;5009178;28;819;-56
2021/04/29 12:46:05;;;;;;;;;;;;;;;;;;5008457;28;881;-57
2021/04/29 12:48:33;;;;;;;;;;;;;;;;;;5008594;28;878;-57
2021/04/29 12:51:03;;;;;;;;;;;;;;;;;;5009175;28;891;-57
2021/04/29 12:53:29;;;;;;;;;;;;;;;;;;5008689;28;851;-59
2021/04/29 12:55:54;;;;;;;;;;;;;;;;;;5008385;28;707;-55
2021/04/29 12:58:23;;;;;;;;;;;;;;;;;;5006983;28;1320;-54
2021/04/29 13:00:52;;;;;;;;;;;;;;;;;;5021916;28;1886;-56
2021/04/29 13:03:17;;;;;;;;;;;;;;;;;;5029741;28;1154;-56
2021/04/29 13:05:43;;;;;;;;;;;;;;;;;;5029298;28;855;-56
2021/04/29 13:08:08;;;;;;;;;;;;;;;;;;5028212;28;823;-60
2021/04/29 13:10:40;;;;;;;;;;;;;;;;;;5028118;28;816;-58
2021/04/29 13:13:05;;;;;;;;;;;;;;;;;;5028164;28;874;-57
2021/04/29 13:15:30;;;;;;;;;;;;;;;;;;5027528;28;1606;-57
2021/04/29 13:17:56;;;;;;;;;;;;;;;;;;5028086;28;1019;-57
2021/04/29 13:20:22;;;;;;;;;;;;;;;;;;5028043;28;1890;-59
2021/04/29 13:22:48;;;;;;;;;;;;;;;;;;5027865;28;846;-56
2021/04/29 13:25:15;;;;;;;;;;;;;;;;;;5028682;28;870;-57
2021/04/29 13:27:44;;;;;;;;;;;;;;;;;;5028117;28;953;-59
2021/04/29 13:30:10;;;;;;;;;;;;;;;;;;5027981;28;835;-60
2021/04/29 13:32:35;;;;;;;;;;;;;;;;;;5028186;28;1136;-58
2021/04/29 13:35:01;;;;;;;;;;;;;;;;;;5027813;28;895;-56
2021/04/29 13:37:27;;;;;;;;;;;;;;;;;;5028356;28;921;-60
2021/04/29 13:39:52;;;;;;;;;;;;;;;;;;5027735;28;1890;-57
2021/04/29 13:42:17;;;;;;;;;;;;;;;;;;5027773;28;811;-59
2021/04/29 13:44:44;;;;;;;;;;;;;;;;;;5027478;28;918;-60
2021/04/29 13:47:10;;;;;;;;;;;;;;;;;;5027751;28;930;-59
2021/04/29 13:49:36;;;;;;;;;;;;;;;;;;5027664;28;929;-59
2021/04/29 13:52:03;;;;;;;;;;;;;;;;;;5027286;28;1147;-62
2021/04/29 13:54:28;;;;;;;;;;;;;;;;;;5027609;28;812;-62
2021/04/29 13:56:53;;;;;;;;;;;;;;;;;;5027721;28;828;-61
2021/04/29 13:59:19;;;;;;;;;;;;;;;;;;5027470;28;1956;-56
2021/04/29 14:01:44;;;;;;;;;;;;;;;;;;5042759;28;1107;-60
2021/04/29 14:04:10;;;;;;;;;;;;;;;;;;5047577;28;893;-58
2021/04/29 14:06:35;;;;;;;;;;;;;;;;;;5047263;28;865;-58
2021/04/29 14:09:01;;;;;;;;;;;;;;;;;;5037255;28;1408;-62
2021/04/29 14:11:26;;;;;;;;;;;;;;;;;;5021714;28;1108;-61
2021/04/29 14:13:52;;;;;;;;;;;;;;;;;;5018570;28;1740;-59
2021/04/29 14:16:18;;;;;;;;;;;;;;;;;;5023922;28;1385;-62
2021/04/29 14:18:43;;;;;;;;;;;;;;;;;;5019484;28;1178;-63
2021/04/29 14:21:10;;;;;;;;;;;;;;;;;;5021088;28;1918;-65
2021/04/29 14:23:35;;;;;;;;;;;;;;;;;;5029700;28;1469;-61
2021/04/29 14:26:01;;;;;;;;;;;;;;;;;;5033399;28;1496;-61
2021/04/29 14:28:26;;;;;;;;;;;;;;;;;;5029276;28;1027;-68
2021/04/29 14:30:52;;;;;;;;;;;;;;;;;;5032544;28;1656;-67
2021/04/29 14:33:18;;;;;;;;;;;;;;;;;;5036388;28;914;-64
2021/04/29 14:35:44;;;;;;;;;;;;;;;;;;5036459;28;1031;-56
2021/04/29 14:38:09;;;;;;;;;;;;;;;;;;5034164;28;1442;-63
2021/04/29 14:40:35;;;;;;;;;;;;;;;;;;5031065;28;1929;-69
2021/04/29 14:43:01;;;;;;;;;;;;;;;;;;5036099;28;1158;-59
2021/04/29 14:45:27;;;;;;;;;;;;;;;;;;5033333;28;1120;-55
2021/04/29 14:47:53;;;;;;;;;;;;;;;;;;5035628;28;1496;-56
2021/04/29 14:50:18;;;;;;;;;;;;;;;;;;5035611;28;883;-57
2021/04/29 14:52:44;;;;;;;;;;;;;;;;;;5036289;28;879;-58
2021/04/29 14:55:09;;;;;;;;;;;;;;;;;;5034336;28;1576;-57
2021/04/29 14:57:35;;;;;;;;;;;;;;;;;;5031450;28;843;-59
2021/04/29 15:00:00;;;;;;;;;;;;;;;;;;5034934;28;1997;-59
2021/04/29 15:02:26;;;;;;;;;;;;;;;;;;5038082;28;807;-54
2021/04/29 15:04:51;;;;;;;;;;;;;;;;;;5024039;28;1019;-59
2021/04/29 15:07:17;;;;;;;;;;;;;;;;;;5043148;28;800;-61
2021/04/29 15:09:42;;;;;;;;;;;;;;;;;;5025981;28;917;-56
2021/04/29 15:12:08;;;;;;;;;;;;;;;;;;5025090;28;878;-57
2021/04/29 15:14:33;;;;;;;;;;;;;;;;;;5025624;28;847;-58
2021/04/29 15:17:02;;;;;;;;;;;;;;;;;;5023900;28;1056;-63
2021/04/29 15:19:27;;;;;;;;;;;;;;;;;;5024593;28;1976;-61
2021/04/29 15:21:53;;;;;;;;;;;;;;;;;;5025279;28;1421;-60
2021/04/29 15:24:18;;;;;;;;;;;;;;;;;;5022953;28;1156;-55
2021/04/29 15:26:44;;;;;;;;;;;;;;;;;;5024430;28;1643;-60
2021/04/29 15:29:09;;;;;;;;;;;;;;;;;;5024496;28;1362;-55
2021/04/29 15:31:35;;;;;;;;;;;;;;;;;;5024468;28;1503;-56
2021/04/29 15:34:00;;;;;;;;;;;;;;;;;;5024469;28;1697;-63
2021/04/29 15:36:26;;;;;;;;;;;;;;;;;;5023950;28;894;-55
2021/04/29 15:38:51;;;;;;;;;;;;;;;;;;5024791;28;906;-65
2021/04/29 15:41:17;;;;;;;;;;;;;;;;;;5023421;28;1967;-58
2021/04/29 15:43:44;;;;;;;;;;;;;;;;;;5025824;28;791;-58
2021/04/29 15:46:09;;;;;;;;;;;;;;;;;;5023736;28;1182;-66
2021/04/29 15:48:35;;;;;;;;;;;;;;;;;;5025248;28;948;-56
2021/04/29 15:51:02;;;;;;;;;;;;;;;;;;5023694;28;1097;-56
2021/04/29 15:53:27;;;;;;;;;;;;;;;;;;5024784;28;902;-61
2021/04/29 15:55:53;;;;;;;;;;;;;;;;;;5024518;28;811;-57
2021/04/29 15:58:18;;;;;;;;;;;;;;;;;;5024989;28;1001;-59
2021/04/29 16:00:44;;;;;;;;;;;;;;;;;;5030292;28;1890;-56
2021/04/29 16:03:09;;;;;;;;;;;;;;;;;;5036572;28;993;-57
2021/04/29 16:05:35;;;;;;;;;;;;;;;;;;5024104;28;1049;-55
2021/04/29 16:08:00;;;;;;;;;;;;;;;;;;5025423;28;898;-62
2021/04/29 16:10:26;;;;;;;;;;;;;;;;;;5028036;28;834;-57
2021/04/29 16:12:51;;;;;;;;;;;;;;;;;;5029132;28;838;-58
2021/04/29 16:15:17;;;;;;;;;;;;;;;;;;5029607;28;1036;-63
2021/04/29 16:17:42;;;;;;;;;;;;;;;;;;5029280;28;850;-59
2021/04/29 16:20:08;;;;;;;;;;;;;;;;;;5027115;28;1885;-58
2021/04/29 16:22:34;;;;;;;;;;;;;;;;;;5027705;28;1338;-59
2021/04/29 16:24:59;;;;;;;;;;;;;;;;;;5029048;28;803;-55
2021/04/29 16:27:25;;;;;;;;;;;;;;;;;;5028171;28;902;-58
2021/04/29 16:29:50;;;;;;;;;;;;;;;;;;5040901;28;804;-58
2021/04/29 16:32:19;;;;;;;;;;;;;;;;;;5048901;28;910;-58
2021/04/29 16:34:45;;;;;;;;;;;;;;;;;;5047176;28;898;-60
2021/04/29 16:37:10;;;;;;;;;;;;;;;;;;5046811;28;858;-57
2021/04/29 16:39:36;;;;;;;;;;;;;;;;;;5043900;28;1902;-65
2021/04/29 16:42:01;;;;;;;;;;;;;;;;;;5045298;28;950;-60
2021/04/29 16:44:26;;;;;;;;;;;;;;;;;;5046241;28;839;-61
2021/04/29 16:46:52;;;;;;;;;;;;;;;;;;5044300;28;910;-58
2021/04/29 16:49:17;;;;;;;;;;;;;;;;;;5024878;28;960;-59
2021/04/29 16:51:43;;;;;;;;;;;;;;;;;;5042328;28;894;-58
2021/04/29 16:54:08;;;;;;;;;;;;;;;;;;5045489;28;962;-55
2021/04/29 16:56:33;;;;;;;;;;;;;;;;;;5029335;28;879;-58
2021/04/29 16:58:59;;;;;;;;;;;;;;;;;;5029150;28;835;-59
2021/04/29 17:01:24;;;;;;;;;;;;;;;;;;5038162;28;1899;-64
2021/04/29 17:03:50;;;;;;;;;;;;;;;;;;5045050;28;831;-60
2021/04/29 17:06:16;;;;;;;;;;;;;;;;;;5039882;28;846;-57
2021/04/29 17:08:42;;;;;;;;;;;;;;;;;;5026662;28;946;-64